YCBG weather

Hobart Cambridge Airport
Tasmania, Australia

Public forecast

Using degrees Celsius for public forecast. Weather courtesy of forecast.io.

METAR (pilot weather report)

Closest report is Hobart International Airport, 1.6 nm (3.0 km) ESE. Retrieved 2019/01/23 17:00 UTC (35 minutes ago):

YMHB 231700Z 00000KT 9999 SCT045 12/06 Q1019

TAF (pilot weather forecast)

Forecast is more than 12 hours old.

Closest forecast is Hobart International Airport, 1.6 nm (3.0 km) ESE. Retrieved 2019/01/22 00:36 UTC (2 days ago):

TAF YMHB 222303Z 2300/2324 18014KT 9999 FEW030 FM230900 12014KT 9999 SCT035 FM232100 01005KT 9999 SCT035